Strona główna
METAR-TAF:

METAR-TAF

Lotnisko :

Port lotniczy Kuusamo

Kuusamo, Finlandia

Szerokość geograficzna: 65-58N, Długość geograficzna: 029-11E, wysokość: 262 m

Aktualna obserwacja pogody

Raport powstał 28 minut temu, godzina 05:20 UTC
Wiatr 13 kt od zachód
Temperatura -2°C
Wilgotność 93%
Ciśnienie 991 hPa
Widzialność: 1800 m
Zachmurzenie całkowite na wysokości 1900 ft
słaby śnieg

METAR: EFKS 090520Z AUTO 28013KT 1800 -SN OVC019 M02/M03 Q0991

czas: 08:48 (05:48 UTC)


TAF: brakujący

Obserwacja i prognoza pogody dla ponad 4000 lotnisk (raport METAR i TAF).

Dostępne stacje oznaczono żółtymi i czerwonymi punktami na mapie.

Najedź kursorem aby zobaczyć nazwę stacji.

Kliknij aby zobaczyć obserwacje i prognozy pogody.

Aby zmienić mapę: kliknij na zielony przycisk z czarnym krzyżykiem, aby powiększyć; na zielony przycisk z myślnikiem, aby pomniejszyć; na zielone strzałki, aby przejść do map sąsiednich.


METAR-TAF: